This is the latest recevied weather packets stored in our database for station/object K9MWD. If no packets are shown the sender has not sent any weather packets the latest 10 day(s).
| Time | Temp. | Humidity | Pressure | Rain* | Wind** | Luminosity | Snow |
|---|---|---|---|---|---|---|---|
| 1788305650 | 36.11° C | 43% | 1013.3 hPa | 0 mm | - | 139 W/m² | - |
| 1788305347 | 36.11° C | 42% | 1013.3 hPa | 0 mm | - | 155 W/m² | - |
| 1788305046 | 36.11° C | 43% | 1013.1 hPa | 0 mm | - | 178 W/m² | - |
| 1788304742 | 36.11° C | 43% | 1013.2 hPa | 0 mm | - | 199 W/m² | - |
| 1788304438 | 36.11° C | 43% | 1013.4 hPa | 0 mm | - | 219 W/m² | - |
| 1788304134 | 35.56° C | 44% | 1013.2 hPa | 0 mm | - | 244 W/m² | - |
| 1788303834 | 35.56° C | 46% | 1013.4 hPa | 0 mm | - | 259 W/m² | - |
| 1788303529 | 34.44° C | 48% | 1013.4 hPa | 0 mm | - | 264 W/m² | - |
| 1788303228 | 35° C | 49% | 1013.5 hPa | 0 mm | - | 142 W/m² | - |
| 1788302924 | 34.44° C | 48% | 1013.4 hPa | 0 mm | - | 147 W/m² | - |
| 1788302620 | 34.44° C | 52% | 1013.4 hPa | 0 mm | - | 153 W/m² | - |
| 1788302316 | 35.56° C | 46% | 1013.4 hPa | 0 mm | - | 165 W/m² | - |
| 1788302011 | 35.56° C | 44% | 1013.4 hPa | 0 mm | - | 165 W/m² | - |
| 1788301707 | 36.11° C | 43% | 1013.4 hPa | 0 mm | - | 179 W/m² | - |
| 1788301403 | 36.11° C | 42% | 1013.2 hPa | 0 mm | - | 182 W/m² | - |
| 1788301099 | 36.11° C | 42% | 1013.3 hPa | 0 mm | - | 192 W/m² | - |
| 1788300794 | 36.11° C | 42% | 1013.5 hPa | 0 mm | - | 185 W/m² | - |
| 1788300494 | 36.11° C | 42% | 1013.3 hPa | 0 mm | - | 201 W/m² | - |
| 1788300193 | 36.67° C | 41% | 1013.5 hPa | 0 mm | - | 282 W/m² | - |
| 1788299892 | 36.67° C | 40% | 1013.5 hPa | 0 mm | - | 334 W/m² | - |
| 1788299592 | 36.67° C | 41% | 1013.5 hPa | 0 mm | - | 373 W/m² | - |
| 1788299290 | 36.67° C | 41% | 1013.5 hPa | 0 mm | - | 568 W/m² | - |
| 1788298989 | 36.11° C | 41% | 1013.5 hPa | 0 mm | - | 480 W/m² | - |
| 1788298684 | 36.11° C | 42% | 1013.4 hPa | 0 mm | - | 188 W/m² | - |
| 1788298383 | 36.11° C | 42% | 1013.5 hPa | 0 mm | - | 190 W/m² | - |
* Rain latest hour (hover to see other rain measurements)
** Current wind speed in m/s (hover to see current wind gust speed)